createdAt,value
2017-01-25T00:00:24.888Z,1018.71
2017-01-25T00:01:24.906Z,1018.68
2017-01-25T00:02:24.910Z,1018.68
2017-01-25T00:03:24.921Z,1018.66
2017-01-25T00:04:24.932Z,1018.69
2017-01-25T00:05:24.947Z,1018.68
2017-01-25T00:06:24.957Z,1018.73
2017-01-25T00:07:24.959Z,1018.74
2017-01-25T00:08:24.977Z,1018.68
2017-01-25T00:09:24.985Z,1018.71
2017-01-25T00:10:25.001Z,1018.7
2017-01-25T00:11:25.004Z,1018.69
2017-01-25T00:12:25.016Z,1018.67
2017-01-25T00:13:25.026Z,1018.68
2017-01-25T00:14:25.041Z,1018.7
2017-01-25T00:15:25.049Z,1018.71
2017-01-25T00:16:25.065Z,1018.68
2017-01-25T00:17:25.074Z,1018.66
2017-01-25T00:18:25.091Z,1018.65
2017-01-25T00:19:25.097Z,1018.68
2017-01-25T00:20:25.111Z,1018.69
2017-01-25T00:21:25.143Z,1018.71
2017-01-25T00:22:25.134Z,1018.67
2017-01-25T00:23:25.141Z,1018.68
2017-01-25T00:24:25.155Z,1018.63
2017-01-25T00:25:25.159Z,1018.66
2017-01-25T00:26:25.171Z,1018.63
2017-01-25T00:27:25.183Z,1018.65
2017-01-25T00:28:25.193Z,1018.68
2017-01-25T00:29:25.204Z,1018.65
2017-01-25T00:30:25.218Z,1018.65
2017-01-25T00:31:25.229Z,1018.68
2017-01-25T00:32:25.238Z,1018.68
2017-01-25T00:33:25.248Z,1018.7
2017-01-25T00:34:25.261Z,1018.69
2017-01-25T00:35:25.275Z,1018.72
2017-01-25T00:36:25.281Z,1018.73
2017-01-25T00:37:25.294Z,1018.71
2017-01-25T00:38:25.304Z,1018.74
2017-01-25T00:39:25.315Z,1018.7
2017-01-25T00:40:25.324Z,1018.73
2017-01-25T00:41:25.338Z,1018.72
2017-01-25T00:42:25.348Z,1018.69
2017-01-25T00:43:25.362Z,1018.71
2017-01-25T00:44:25.369Z,1018.71
2017-01-25T00:45:25.379Z,1018.73
2017-01-25T00:46:25.393Z,1018.71
2017-01-25T00:47:25.408Z,1018.68
2017-01-25T00:48:25.412Z,1018.73
2017-01-25T00:49:25.425Z,1018.7
2017-01-25T00:50:25.462Z,1018.71
2017-01-25T00:51:25.446Z,1018.73
2017-01-25T00:52:25.467Z,1018.7
2017-01-25T00:53:25.469Z,1018.73
2017-01-25T00:54:25.481Z,1018.73
2017-01-25T00:55:25.491Z,1018.73
2017-01-25T00:56:25.501Z,1018.68
2017-01-25T00:57:25.520Z,1018.68
2017-01-25T00:58:25.523Z,1018.65
2017-01-25T00:59:25.537Z,1018.68
2017-01-25T01:00:25.546Z,1018.65
2017-01-25T01:01:25.557Z,1018.66
2017-01-25T01:02:25.568Z,1018.64
2017-01-25T01:03:25.583Z,1018.64
2017-01-25T01:04:25.589Z,1018.62
2017-01-25T01:05:25.602Z,1018.63
2017-01-25T01:06:25.613Z,1018.65
2017-01-25T01:07:25.624Z,1018.68
2017-01-25T01:08:25.635Z,1018.66
2017-01-25T01:09:25.646Z,1018.64
2017-01-25T01:10:25.656Z,1018.7
2017-01-25T01:11:25.668Z,1018.71
2017-01-25T01:12:25.687Z,1018.74
2017-01-25T01:13:25.689Z,1018.66
2017-01-25T01:14:25.705Z,1018.68
2017-01-25T01:15:25.723Z,1018.65
2017-01-25T01:16:25.728Z,1018.67
2017-01-25T01:17:25.739Z,1018.63
2017-01-25T01:18:25.749Z,1018.65
2017-01-25T01:19:25.763Z,1018.64
2017-01-25T01:20:25.766Z,1018.62
2017-01-25T01:21:25.777Z,1018.59
2017-01-25T01:22:25.795Z,1018.6
2017-01-25T01:23:25.828Z,1018.57
2017-01-25T01:24:25.810Z,1018.59
2017-01-25T01:25:25.823Z,1018.61
2017-01-25T01:26:25.834Z,1018.6
2017-01-25T01:27:25.847Z,1018.6
2017-01-25T01:28:25.856Z,1018.65
2017-01-25T01:29:25.866Z,1018.6
2017-01-25T01:30:25.879Z,1018.63
2017-01-25T01:31:25.886Z,1018.65
2017-01-25T01:32:25.898Z,1018.63
2017-01-25T01:33:25.910Z,1018.63
2017-01-25T01:34:25.928Z,1018.57
2017-01-25T01:35:25.931Z,1018.58
2017-01-25T01:36:25.942Z,1018.5
2017-01-25T01:37:25.957Z,1018.53
2017-01-25T01:38:25.965Z,1018.5
2017-01-25T01:39:25.975Z,1018.52
2017-01-25T01:40:25.988Z,1018.51
2017-01-25T01:41:26.002Z,1018.5
2017-01-25T01:42:26.010Z,1018.5
2017-01-25T01:43:26.019Z,1018.5
2017-01-25T01:44:26.030Z,1018.53
2017-01-25T01:45:26.044Z,1018.47
2017-01-25T01:46:26.053Z,1018.46
2017-01-25T01:47:26.064Z,1018.43
2017-01-25T01:48:26.076Z,1018.45
2017-01-25T01:49:26.089Z,1018.45
2017-01-25T01:50:26.098Z,1018.45
2017-01-25T01:51:26.108Z,1018.45
2017-01-25T01:52:26.130Z,1018.48
2017-01-25T01:53:26.130Z,1018.41
2017-01-25T01:54:26.142Z,1018.47
2017-01-25T01:55:26.152Z,1018.46
2017-01-25T01:56:26.164Z,1018.48
2017-01-25T01:57:26.179Z,1018.53
2017-01-25T01:58:26.186Z,1018.49
2017-01-25T01:59:26.196Z,1018.5
2017-01-25T02:00:26.216Z,1018.51
2017-01-25T02:01:26.219Z,1018.53
2017-01-25T02:02:26.229Z,1018.5
2017-01-25T02:03:26.241Z,1018.47
2017-01-25T02:04:26.253Z,1018.52
2017-01-25T02:05:26.271Z,1018.54
2017-01-25T02:06:26.274Z,1018.5
2017-01-25T02:07:26.285Z,1018.54
2017-01-25T02:08:26.295Z,1018.52
2017-01-25T02:09:26.307Z,1018.55
2017-01-25T02:10:26.322Z,1018.57
2017-01-25T02:11:26.335Z,1018.54
2017-01-25T02:12:26.344Z,1018.53
2017-01-25T02:13:26.352Z,1018.53
2017-01-25T02:14:26.395Z,1018.53
2017-01-25T02:15:26.379Z,1018.51
2017-01-25T02:16:26.387Z,1018.5
2017-01-25T02:17:26.394Z,1018.47
2017-01-25T02:18:26.412Z,1018.48
2017-01-25T02:19:26.417Z,1018.46
2017-01-25T02:20:26.446Z,1018.5
2017-01-25T02:21:26.439Z,1018.51
2017-01-25T02:22:26.482Z,1018.48
2017-01-25T02:23:26.467Z,1018.48
2017-01-25T02:24:26.471Z,1018.49
2017-01-25T02:25:26.484Z,1018.48
2017-01-25T02:26:26.494Z,1018.47
2017-01-25T02:27:26.504Z,1018.48
2017-01-25T02:28:26.520Z,1018.52
2017-01-25T02:29:26.528Z,1018.52
2017-01-25T02:30:26.537Z,1018.52
2017-01-25T02:31:26.548Z,1018.55
2017-01-25T02:32:26.558Z,1018.56
2017-01-25T02:33:26.579Z,1018.59
2017-01-25T02:34:26.581Z,1018.64
2017-01-25T02:35:26.592Z,1018.62
2017-01-25T02:36:26.607Z,1018.63
2017-01-25T02:37:26.626Z,1018.64
2017-01-25T02:38:26.624Z,1018.61
2017-01-25T02:39:26.636Z,1018.6
2017-01-25T02:40:26.647Z,1018.67
2017-01-25T02:41:26.673Z,1018.62
2017-01-25T02:42:26.679Z,1018.62
2017-01-25T02:43:26.679Z,1018.62
2017-01-25T02:44:26.704Z,1018.59
2017-01-25T02:45:26.704Z,1018.61
2017-01-25T02:46:26.722Z,1018.58
2017-01-25T02:47:26.726Z,1018.55
2017-01-25T02:48:26.736Z,1018.54
2017-01-25T02:49:26.747Z,1018.54
2017-01-25T02:50:26.766Z,1018.55
2017-01-25T02:51:26.768Z,1018.54
2017-01-25T02:52:26.778Z,1018.59
2017-01-25T02:53:26.790Z,1018.63
2017-01-25T02:54:26.800Z,1018.6
2017-01-25T02:55:26.812Z,1018.64
2017-01-25T02:56:26.827Z,1018.64
2017-01-25T02:57:26.835Z,1018.67
2017-01-25T02:58:26.847Z,1018.65
2017-01-25T02:59:26.855Z,1018.66
2017-01-25T03:00:26.867Z,1018.64
2017-01-25T03:01:26.878Z,1018.63
2017-01-25T03:02:26.891Z,1018.65
2017-01-25T03:03:26.901Z,1018.62
2017-01-25T03:04:26.910Z,1018.63
2017-01-25T03:05:26.925Z,1018.59
2017-01-25T03:06:26.939Z,1018.58
2017-01-25T03:07:26.943Z,1018.6
2017-01-25T03:08:26.962Z,1018.6
2017-01-25T03:09:26.967Z,1018.58
2017-01-25T03:10:26.984Z,1018.59
2017-01-25T03:11:26.987Z,1018.58
2017-01-25T03:12:27.003Z,1018.61
2017-01-25T03:13:27.010Z,1018.57
2017-01-25T03:14:27.019Z,1018.57
2017-01-25T03:15:27.031Z,1018.55
2017-01-25T03:16:27.042Z,1018.59
2017-01-25T03:17:27.052Z,1018.59
2017-01-25T03:18:27.067Z,1018.59
2017-01-25T03:19:27.074Z,1018.58
2017-01-25T03:20:27.092Z,1018.61
2017-01-25T03:21:27.097Z,1018.63
2017-01-25T03:22:27.108Z,1018.63
2017-01-25T03:23:27.121Z,1018.64
2017-01-25T03:24:27.136Z,1018.63
2017-01-25T03:25:27.143Z,1018.6
2017-01-25T03:26:27.153Z,1018.6
2017-01-25T03:27:27.165Z,1018.58
2017-01-25T03:28:27.177Z,1018.63
2017-01-25T03:29:27.194Z,1018.64
2017-01-25T03:30:27.198Z,1018.63
2017-01-25T03:31:27.215Z,1018.63
2017-01-25T03:32:27.219Z,1018.63
2017-01-25T03:33:27.230Z,1018.59
2017-01-25T03:34:27.242Z,1018.62
2017-01-25T03:35:27.256Z,1018.61
2017-01-25T03:36:27.274Z,1018.66
2017-01-25T03:37:27.275Z,1018.67
2017-01-25T03:38:27.290Z,1018.61
2017-01-25T03:39:27.296Z,1018.62
2017-01-25T03:40:27.317Z,1018.65
2017-01-25T03:41:27.322Z,1018.66
2017-01-25T03:42:27.332Z,1018.66
2017-01-25T03:43:27.340Z,1018.63
2017-01-25T03:44:27.352Z,1018.62
2017-01-25T03:45:27.362Z,1018.63
2017-01-25T03:46:27.372Z,1018.65
2017-01-25T03:47:27.386Z,1018.67
2017-01-25T03:48:27.399Z,1018.7
2017-01-25T03:49:27.405Z,1018.67
2017-01-25T03:50:27.417Z,1018.67
2017-01-25T03:51:27.427Z,1018.62
2017-01-25T03:52:27.438Z,1018.64
2017-01-25T03:53:27.450Z,1018.65
2017-01-25T03:54:27.465Z,1018.64
2017-01-25T03:55:27.473Z,1018.61
2017-01-25T03:56:27.484Z,1018.62
2017-01-25T03:57:27.493Z,1018.6
2017-01-25T03:58:27.503Z,1018.59
2017-01-25T03:59:27.523Z,1018.63
2017-01-25T04:00:27.534Z,1018.63
2017-01-25T04:01:27.536Z,1018.63
2017-01-25T04:02:27.547Z,1018.63
2017-01-25T04:03:27.560Z,1018.61
2017-01-25T04:04:27.569Z,1018.6
2017-01-25T04:05:27.582Z,1018.61
2017-01-25T04:06:27.592Z,1018.7
2017-01-25T04:07:27.603Z,1018.68
2017-01-25T04:08:27.613Z,1018.72
2017-01-25T04:09:27.627Z,1018.67
2017-01-25T04:10:27.639Z,1018.72
2017-01-25T04:11:27.675Z,1018.67
2017-01-25T04:12:27.659Z,1018.67
2017-01-25T04:13:27.670Z,1018.61
2017-01-25T04:14:27.683Z,1018.58
2017-01-25T04:15:27.692Z,1018.54
2017-01-25T04:16:27.703Z,1018.52
2017-01-25T04:17:27.712Z,1018.54
2017-01-25T04:18:27.730Z,1018.59
2017-01-25T04:19:27.746Z,1018.6
2017-01-25T04:20:27.746Z,1018.62
2017-01-25T04:21:27.756Z,1018.62
2017-01-25T04:22:27.768Z,1018.59
2017-01-25T04:23:27.776Z,1018.6
2017-01-25T04:24:27.798Z,1018.58
2017-01-25T04:25:27.803Z,1018.6
2017-01-25T04:26:27.813Z,1018.59
2017-01-25T04:27:27.821Z,1018.6
2017-01-25T04:28:27.832Z,1018.6
2017-01-25T04:29:27.851Z,1018.65
2017-01-25T04:30:27.858Z,1018.66
2017-01-25T04:31:27.865Z,1018.62
2017-01-25T04:32:27.878Z,1018.67
2017-01-25T04:33:27.900Z,1018.65
2017-01-25T04:34:27.904Z,1018.65
2017-01-25T04:35:27.909Z,1018.66
2017-01-25T04:36:27.919Z,1018.68
2017-01-25T04:37:27.932Z,1018.72
2017-01-25T04:38:27.943Z,1018.72
2017-01-25T04:39:27.952Z,1018.73
2017-01-25T04:40:27.967Z,1018.76
2017-01-25T04:41:27.973Z,1018.79
2017-01-25T04:42:27.986Z,1018.77
2017-01-25T04:43:27.996Z,1018.79
2017-01-25T04:44:28.007Z,1018.78
2017-01-25T04:45:28.016Z,1018.8
2017-01-25T04:46:28.029Z,1018.81
2017-01-25T04:47:28.040Z,1018.8
2017-01-25T04:48:28.051Z,1018.77
2017-01-25T04:49:28.062Z,1018.75
2017-01-25T04:50:28.075Z,1018.72
2017-01-25T04:51:28.083Z,1018.76
2017-01-25T04:52:28.094Z,1018.8
2017-01-25T04:53:28.104Z,1018.81
2017-01-25T04:54:28.121Z,1018.82
2017-01-25T04:55:28.128Z,1018.86
2017-01-25T04:56:28.136Z,1018.84
2017-01-25T04:57:28.148Z,1018.81
2017-01-25T04:58:28.161Z,1018.79
2017-01-25T04:59:28.172Z,1018.81
2017-01-25T05:00:28.183Z,1018.81
2017-01-25T05:01:28.198Z,1018.83
2017-01-25T05:02:28.204Z,1018.84
2017-01-25T05:03:28.215Z,1018.87
2017-01-25T05:04:28.227Z,1018.82
2017-01-25T05:05:28.237Z,1018.81
2017-01-25T05:06:28.255Z,1018.81
2017-01-25T05:07:28.272Z,1018.83
2017-01-25T05:08:28.270Z,1018.81
2017-01-25T05:09:28.281Z,1018.82
2017-01-25T05:10:28.294Z,1018.81
2017-01-25T05:11:28.302Z,1018.77
2017-01-25T05:12:28.317Z,1018.79
2017-01-25T05:13:28.324Z,1018.79
2017-01-25T05:14:28.336Z,1018.83
2017-01-25T05:15:28.345Z,1018.81
2017-01-25T05:16:28.358Z,1018.75
2017-01-25T05:17:28.367Z,1018.74
2017-01-25T05:18:28.386Z,1018.71
2017-01-25T05:19:28.389Z,1018.73
2017-01-25T05:20:28.402Z,1018.69
2017-01-25T05:21:28.414Z,1018.74
2017-01-25T05:22:28.427Z,1018.77
2017-01-25T05:23:28.434Z,1018.82
2017-01-25T05:24:28.444Z,1018.82
2017-01-25T05:25:28.456Z,1018.86
2017-01-25T05:26:28.465Z,1018.88
2017-01-25T05:27:28.482Z,1018.89
2017-01-25T05:28:28.488Z,1018.9
2017-01-25T05:29:28.501Z,1018.92
2017-01-25T05:30:28.511Z,1018.94
2017-01-25T05:31:28.523Z,1018.95
2017-01-25T05:32:28.535Z,1018.99
2017-01-25T05:33:28.542Z,1019
2017-01-25T05:34:28.563Z,1019
2017-01-25T05:35:28.565Z,1018.97
2017-01-25T05:36:28.574Z,1019.02
2017-01-25T05:37:28.592Z,1018.97
2017-01-25T05:38:28.598Z,1018.97
2017-01-25T05:39:28.606Z,1018.99
2017-01-25T05:40:28.618Z,1019
2017-01-25T05:41:28.631Z,1019.04
2017-01-25T05:42:28.644Z,1019.04
2017-01-25T05:43:28.649Z,1019.04
2017-01-25T05:44:28.668Z,1019.06
2017-01-25T05:45:28.681Z,1019.11
2017-01-25T05:46:28.683Z,1019.11
2017-01-25T05:47:28.693Z,1019.08
2017-01-25T05:48:28.704Z,1019.09
2017-01-25T05:49:28.719Z,1019.09
2017-01-25T05:50:28.727Z,1019.09
2017-01-25T05:51:28.736Z,1019.12
2017-01-25T05:52:28.749Z,1019.1
2017-01-25T05:53:28.758Z,1019.09
2017-01-25T05:54:28.773Z,1019.06
2017-01-25T05:55:28.786Z,1019.07
2017-01-25T05:56:28.802Z,1019.07
2017-01-25T05:57:28.804Z,1019.06
2017-01-25T05:58:28.816Z,1019.07
2017-01-25T05:59:28.830Z,1019.09
2017-01-25T06:00:28.836Z,1019.09
2017-01-25T06:01:28.848Z,1019.11
2017-01-25T06:02:28.857Z,1019.12
2017-01-25T06:03:28.877Z,1019.15
2017-01-25T06:04:28.888Z,1019.16
2017-01-25T06:05:28.893Z,1019.16
2017-01-25T06:06:28.900Z,1019.22
2017-01-25T06:07:28.913Z,1019.22
2017-01-25T06:08:28.924Z,1019.25
2017-01-25T06:09:28.956Z,1019.29
2017-01-25T06:10:28.945Z,1019.3
2017-01-25T06:11:28.961Z,1019.26
2017-01-25T06:12:28.967Z,1019.23
2017-01-25T06:13:28.977Z,1019.26
2017-01-25T06:14:28.989Z,1019.29
2017-01-25T06:15:29.002Z,1019.32
2017-01-25T06:16:29.012Z,1019.3
2017-01-25T06:17:29.021Z,1019.3
2017-01-25T06:18:29.032Z,1019.34
2017-01-25T06:19:29.043Z,1019.31
2017-01-25T06:20:29.053Z,1019.39
2017-01-25T06:21:29.066Z,1019.36
2017-01-25T06:22:29.079Z,1019.32
2017-01-25T06:23:29.087Z,1019.32
2017-01-25T06:24:29.099Z,1019.32
2017-01-25T06:25:29.110Z,1019.31
2017-01-25T06:26:29.127Z,1019.33
2017-01-25T06:27:29.129Z,1019.29
2017-01-25T06:28:29.139Z,1019.24
2017-01-25T06:29:29.152Z,1019.27
2017-01-25T06:30:29.170Z,1019.24
2017-01-25T06:31:29.181Z,1019.24
2017-01-25T06:32:29.187Z,1019.25
2017-01-25T06:33:29.195Z,1019.22
2017-01-25T06:34:29.205Z,1019.25
2017-01-25T06:35:29.218Z,1019.29
2017-01-25T06:36:29.229Z,1019.36
2017-01-25T06:37:29.245Z,1019.36
2017-01-25T06:38:29.250Z,1019.36
2017-01-25T06:39:29.261Z,1019.39
2017-01-25T06:40:29.274Z,1019.43
2017-01-25T06:41:29.288Z,1019.42
2017-01-25T06:42:29.293Z,1019.46
2017-01-25T06:43:29.305Z,1019.43
2017-01-25T06:44:29.318Z,1019.49
2017-01-25T06:45:29.330Z,1019.47
2017-01-25T06:46:29.339Z,1019.45
2017-01-25T06:47:29.349Z,1019.48
2017-01-25T06:48:29.360Z,1019.5
2017-01-25T06:49:29.372Z,1019.51
2017-01-25T06:50:29.381Z,1019.53
2017-01-25T06:51:29.392Z,1019.52
2017-01-25T06:52:29.408Z,1019.5
2017-01-25T06:53:29.412Z,1019.52
2017-01-25T06:54:29.424Z,1019.53
2017-01-25T06:55:29.435Z,1019.55
2017-01-25T06:56:29.448Z,1019.54
2017-01-25T06:57:29.456Z,1019.55
2017-01-25T06:58:29.469Z,1019.52
2017-01-25T06:59:29.484Z,1019.53
2017-01-25T07:00:29.491Z,1019.55
2017-01-25T07:01:29.502Z,1019.51
2017-01-25T07:02:29.513Z,1019.6
2017-01-25T07:03:29.524Z,1019.59
2017-01-25T07:04:29.536Z,1019.57
2017-01-25T07:05:29.545Z,1019.63
2017-01-25T07:06:29.563Z,1019.59
2017-01-25T07:07:29.568Z,1019.62
2017-01-25T07:08:29.579Z,1019.67
2017-01-25T07:09:29.588Z,1019.64
2017-01-25T07:10:29.598Z,1019.65
2017-01-25T07:11:29.609Z,1019.65
2017-01-25T07:12:29.621Z,1019.65
2017-01-25T07:13:29.632Z,1019.59
2017-01-25T07:14:29.648Z,1019.65
2017-01-25T07:15:29.657Z,1019.64
2017-01-25T07:16:29.672Z,1019.64
2017-01-25T07:17:29.677Z,1019.65
2017-01-25T07:18:29.685Z,1019.68
2017-01-25T07:19:29.698Z,1019.67
2017-01-25T07:20:29.710Z,1019.68
2017-01-25T07:21:29.721Z,1019.66
2017-01-25T07:22:29.735Z,1019.7
2017-01-25T07:23:29.743Z,1019.73
2017-01-25T07:24:29.752Z,1019.71
2017-01-25T07:25:29.765Z,1019.7
2017-01-25T07:26:29.774Z,1019.69
2017-01-25T07:27:29.784Z,1019.68
2017-01-25T07:28:29.797Z,1019.69
2017-01-25T07:29:29.809Z,1019.72
2017-01-25T07:30:29.819Z,1019.7
2017-01-25T07:31:29.829Z,1019.7
2017-01-25T07:32:29.841Z,1019.68
2017-01-25T07:33:29.850Z,1019.68
2017-01-25T07:34:29.864Z,1019.65
2017-01-25T07:35:29.875Z,1019.64
2017-01-25T07:36:29.883Z,1019.65
2017-01-25T07:37:29.895Z,1019.66
2017-01-25T07:38:29.915Z,1019.67
2017-01-25T07:39:29.926Z,1019.65
2017-01-25T07:40:29.935Z,1019.65
2017-01-25T07:41:29.938Z,1019.64
2017-01-25T07:42:29.950Z,1019.62
2017-01-25T07:43:29.964Z,1019.59
2017-01-25T07:44:29.974Z,1019.53
2017-01-25T07:45:29.982Z,1019.56
2017-01-25T07:46:29.996Z,1019.54
2017-01-25T07:47:30.005Z,1019.49
2017-01-25T07:48:30.018Z,1019.51
2017-01-25T07:49:30.026Z,1019.54
2017-01-25T07:50:30.038Z,1019.57
2017-01-25T07:51:30.048Z,1019.65
2017-01-25T07:52:30.059Z,1019.7
2017-01-25T07:53:30.071Z,1019.7
2017-01-25T07:54:30.082Z,1019.69
2017-01-25T07:55:30.091Z,1019.71
2017-01-25T07:56:30.104Z,1019.69
2017-01-25T07:57:30.115Z,1019.66
2017-01-25T07:58:30.125Z,1019.63
2017-01-25T07:59:30.135Z,1019.62
2017-01-25T08:00:30.147Z,1019.65
2017-01-25T08:01:30.158Z,1019.62
2017-01-25T08:02:30.168Z,1019.63
2017-01-25T08:03:30.181Z,1019.66
2017-01-25T08:04:30.194Z,1019.63
2017-01-25T08:05:30.202Z,1019.64
2017-01-25T08:06:30.214Z,1019.59
2017-01-25T08:07:30.224Z,1019.61
2017-01-25T08:08:30.239Z,1019.62
2017-01-25T08:09:30.247Z,1019.7
2017-01-25T08:10:30.256Z,1019.73
2017-01-25T08:11:30.273Z,1019.73
2017-01-25T08:12:30.286Z,1019.77
2017-01-25T08:13:30.291Z,1019.74
2017-01-25T08:14:30.304Z,1019.73
2017-01-25T08:15:30.312Z,1019.77
2017-01-25T08:16:30.324Z,1019.76
2017-01-25T08:17:30.333Z,1019.79
2017-01-25T08:18:30.345Z,1019.79
2017-01-25T08:19:30.356Z,1019.81
2017-01-25T08:20:30.367Z,1019.81
2017-01-25T08:21:30.377Z,1019.8
2017-01-25T08:22:30.436Z,1019.81
2017-01-25T08:23:30.402Z,1019.88
2017-01-25T08:24:30.410Z,1019.85
2017-01-25T08:25:30.454Z,1019.82
2017-01-25T08:26:30.434Z,1019.78
2017-01-25T08:27:30.443Z,1019.8
2017-01-25T08:28:30.454Z,1019.84
2017-01-25T08:29:30.465Z,1019.84
2017-01-25T08:30:30.476Z,1019.84
2017-01-25T08:31:30.488Z,1019.85
2017-01-25T08:32:30.498Z,1019.9
2017-01-25T08:33:30.510Z,1019.88
2017-01-25T08:34:30.521Z,1019.82
2017-01-25T08:35:30.532Z,1019.83
2017-01-25T08:36:30.543Z,1019.83
2017-01-25T08:37:30.555Z,1019.82
2017-01-25T08:38:30.566Z,1019.84
2017-01-25T08:39:30.575Z,1019.87
2017-01-25T08:40:30.587Z,1019.86
2017-01-25T08:41:30.598Z,1019.83
2017-01-25T08:42:30.608Z,1019.86
2017-01-25T08:43:30.625Z,1019.87
2017-01-25T08:44:30.631Z,1019.91
2017-01-25T08:45:30.641Z,1019.89
2017-01-25T08:46:30.654Z,1019.91
2017-01-25T08:47:30.665Z,1019.91
2017-01-25T08:48:30.676Z,1019.87
2017-01-25T08:49:30.863Z,1019.87
2017-01-25T08:50:30.699Z,1019.87
2017-01-25T08:51:30.709Z,1019.9
2017-01-25T08:52:30.722Z,1019.93
2017-01-25T08:53:30.731Z,1019.94
2017-01-25T08:54:30.743Z,1019.96
2017-01-25T08:55:30.753Z,1019.98
2017-01-25T08:56:30.764Z,1019.98
2017-01-25T08:57:30.774Z,1019.98
2017-01-25T08:58:30.786Z,1019.97
2017-01-25T08:59:30.797Z,1019.98
2017-01-25T09:00:30.810Z,1019.95
2017-01-25T09:01:30.823Z,1019.95
2017-01-25T09:02:30.830Z,1019.92
2017-01-25T09:03:30.843Z,1019.94
2017-01-25T09:04:30.852Z,1019.94
2017-01-25T09:05:30.867Z,1019.98
2017-01-25T09:06:30.879Z,1019.98
2017-01-25T09:07:30.887Z,1019.95
2017-01-25T09:08:30.898Z,1019.93
2017-01-25T09:09:30.911Z,1019.89
2017-01-25T09:10:30.921Z,1019.89
2017-01-25T09:11:30.932Z,1019.91
2017-01-25T09:12:30.944Z,1019.97
2017-01-25T09:13:30.953Z,1019.98
2017-01-25T09:14:31.015Z,1019.97
2017-01-25T09:15:30.976Z,1019.97
2017-01-25T09:16:30.988Z,1020.01
2017-01-25T09:17:31.005Z,1019.98
2017-01-25T09:18:31.012Z,1019.96
2017-01-25T09:19:31.020Z,1019.97
2017-01-25T09:20:31.043Z,1020.01
2017-01-25T09:21:31.045Z,1019.98
2017-01-25T09:22:31.091Z,1019.96
2017-01-25T09:23:31.069Z,1019.94
2017-01-25T09:24:31.079Z,1019.9
2017-01-25T09:25:31.089Z,1019.88
2017-01-25T09:26:31.104Z,1019.93
2017-01-25T09:27:31.111Z,1019.95
2017-01-25T09:28:31.123Z,1019.95
2017-01-25T09:29:31.136Z,1019.92
2017-01-25T09:30:31.144Z,1019.93
2017-01-25T09:31:31.162Z,1019.94
2017-01-25T09:32:31.171Z,1019.97
2017-01-25T09:33:31.182Z,1020.01
2017-01-25T09:34:31.191Z,1019.99
2017-01-25T09:35:31.204Z,1020.02
2017-01-25T09:36:31.218Z,1019.97
2017-01-25T09:37:31.224Z,1019.98
2017-01-25T09:38:31.236Z,1020
2017-01-25T09:39:31.251Z,1020.07
2017-01-25T09:40:31.260Z,1020.08
2017-01-25T09:41:31.269Z,1020.09
2017-01-25T09:42:31.281Z,1020.08
2017-01-25T09:43:31.294Z,1020.05
2017-01-25T09:44:31.305Z,1020.07
2017-01-25T09:45:31.319Z,1020.12
2017-01-25T09:46:31.329Z,1020.11
2017-01-25T09:47:31.341Z,1020.05
2017-01-25T09:48:31.350Z,1020.01
2017-01-25T09:49:31.364Z,1020.05
2017-01-25T09:50:31.374Z,1020
2017-01-25T09:51:31.385Z,1020.04
2017-01-25T09:52:31.396Z,1020.1
2017-01-25T09:53:31.408Z,1020.07
2017-01-25T09:54:31.419Z,1020.05
2017-01-25T09:55:31.431Z,1020.02
2017-01-25T09:56:31.442Z,1020.01
2017-01-25T09:57:31.453Z,1020.02
2017-01-25T09:58:31.466Z,1020.13
2017-01-25T09:59:31.476Z,1020.09
2017-01-25T10:00:31.489Z,1020.13
2017-01-25T10:01:31.504Z,1020.08
2017-01-25T10:02:31.512Z,1020.03
2017-01-25T10:03:31.529Z,1020.03
2017-01-25T10:04:31.535Z,1020.01
2017-01-25T10:05:31.546Z,1020.09
2017-01-25T10:06:31.557Z,1020.06
2017-01-25T10:07:31.572Z,1020.05
2017-01-25T10:08:31.582Z,1019.98
2017-01-25T10:09:31.593Z,1020.08
2017-01-25T10:10:31.603Z,1020.11
2017-01-25T10:11:31.614Z,1020.13
2017-01-25T10:12:31.627Z,1020.09
2017-01-25T10:13:31.641Z,1020.09
2017-01-25T10:14:31.650Z,1020.11
2017-01-25T10:15:31.661Z,1020.11
2017-01-25T10:16:31.673Z,1020.07
2017-01-25T10:17:31.683Z,1020.03
2017-01-25T10:18:31.695Z,1020.06
2017-01-25T10:19:31.708Z,1020.11
2017-01-25T10:20:31.718Z,1020.07
2017-01-25T10:21:31.730Z,1020.04
2017-01-25T10:22:31.744Z,1020.03
2017-01-25T10:23:31.756Z,1020.07
2017-01-25T10:24:31.765Z,1020.07
2017-01-25T10:25:31.780Z,1020.09
2017-01-25T10:26:31.787Z,1020.08
2017-01-25T10:27:31.803Z,1020.01
2017-01-25T10:28:31.809Z,1020.07
2017-01-25T10:29:31.821Z,1020.06
2017-01-25T10:30:31.834Z,1020.04
2017-01-25T10:31:31.844Z,1020.06
2017-01-25T10:32:31.856Z,1020.08
2017-01-25T10:33:31.869Z,1020.04
2017-01-25T10:34:31.880Z,1020.05
2017-01-25T10:35:31.891Z,1020.03
2017-01-25T10:36:31.902Z,1019.99
2017-01-25T10:37:31.913Z,1020.05
2017-01-25T10:38:31.925Z,1020
2017-01-25T10:39:31.936Z,1020.02
2017-01-25T10:40:31.948Z,1020.05
2017-01-25T10:41:31.961Z,1020.06
2017-01-25T10:42:31.971Z,1020.03
2017-01-25T10:43:31.983Z,1020.09
2017-01-25T10:44:31.995Z,1020.08
2017-01-25T10:45:32.007Z,1020.1
2017-01-25T10:46:32.019Z,1020.07
2017-01-25T10:47:32.029Z,1020.09
2017-01-25T10:48:32.042Z,1020.04
2017-01-25T10:49:32.055Z,1020.07
2017-01-25T10:50:32.113Z,1020.08
2017-01-25T10:51:32.075Z,1020.04
2017-01-25T10:52:32.088Z,1020.05
2017-01-25T10:53:32.102Z,1020.04
2017-01-25T10:54:32.111Z,1020.07
2017-01-25T10:55:32.124Z,1020.07
2017-01-25T10:56:32.136Z,1020.07
2017-01-25T10:57:32.146Z,1020.08
2017-01-25T10:58:32.158Z,1020.09
2017-01-25T10:59:32.170Z,1020.06
2017-01-25T11:00:32.183Z,1020.09
2017-01-25T11:01:32.193Z,1020.08
2017-01-25T11:02:32.205Z,1020.11
2017-01-25T11:03:32.216Z,1020.08
2017-01-25T11:04:32.228Z,1020.1
2017-01-25T11:05:32.241Z,1020.07
2017-01-25T11:06:32.251Z,1020.05
2017-01-25T11:07:32.264Z,1020.04
2017-01-25T11:08:32.276Z,1020.07
2017-01-25T11:09:32.287Z,1020.06
2017-01-25T11:10:32.299Z,1020.06
2017-01-25T11:11:32.312Z,1020.01
2017-01-25T11:12:32.323Z,1020.02
2017-01-25T11:13:32.334Z,1020.05
2017-01-25T11:14:32.346Z,1020.02
2017-01-25T11:15:32.359Z,1020.09
2017-01-25T11:16:32.372Z,1020.04
2017-01-25T11:17:32.382Z,1020.05
2017-01-25T11:18:32.394Z,1020.07
2017-01-25T11:19:32.408Z,1020.07
2017-01-25T11:20:32.420Z,1020.1
2017-01-25T11:21:32.433Z,1020.05
2017-01-25T11:22:32.443Z,1020.03
2017-01-25T11:23:32.456Z,1020.02
2017-01-25T11:24:32.467Z,1019.98
2017-01-25T11:25:32.480Z,1020.02
2017-01-25T11:26:32.490Z,1020.03
2017-01-25T11:27:32.502Z,1020
2017-01-25T11:28:32.512Z,1020.04
2017-01-25T11:29:32.526Z,1020.01
2017-01-25T11:30:32.536Z,1020.03
2017-01-25T11:31:32.548Z,1019.98
2017-01-25T11:32:32.562Z,1019.99
2017-01-25T11:33:32.572Z,1019.93
2017-01-25T11:34:32.585Z,1019.98
2017-01-25T11:35:32.596Z,1019.94
2017-01-25T11:36:32.607Z,1019.96
2017-01-25T11:37:32.621Z,1019.94
2017-01-25T11:38:32.631Z,1019.9
2017-01-25T11:39:32.643Z,1019.89
2017-01-25T11:40:32.656Z,1019.84
2017-01-25T11:41:32.667Z,1019.84
2017-01-25T11:42:32.679Z,1019.83
2017-01-25T11:43:32.692Z,1019.88
2017-01-25T11:44:32.704Z,1019.86
2017-01-25T11:45:32.714Z,1019.85
2017-01-25T11:46:32.727Z,1019.85
2017-01-25T11:47:32.738Z,1019.81
2017-01-25T11:48:32.752Z,1019.75
2017-01-25T11:49:32.763Z,1019.8
2017-01-25T11:50:32.776Z,1019.78
2017-01-25T11:51:32.787Z,1019.73
2017-01-25T11:52:32.799Z,1019.71
2017-01-25T11:53:32.810Z,1019.71
2017-01-25T11:54:32.823Z,1019.73
2017-01-25T11:55:32.836Z,1019.68
2017-01-25T11:56:32.851Z,1019.62
2017-01-25T11:57:32.864Z,1019.64
2017-01-25T11:58:32.871Z,1019.65
2017-01-25T11:59:32.886Z,1019.64
2017-01-25T12:00:32.894Z,1019.63
2017-01-25T12:01:32.906Z,1019.63
2017-01-25T12:02:32.919Z,1019.66
2017-01-25T12:03:32.930Z,1019.67
2017-01-25T12:04:32.949Z,1019.61
2017-01-25T12:05:32.956Z,1019.59
2017-01-25T12:06:32.966Z,1019.62
2017-01-25T12:07:32.979Z,1019.56
2017-01-25T12:08:32.992Z,1019.55